Time;durP1;ratioP1;P1;durP2;ratioP2;P2;SDS_P1;SDS_P2;PMS_P1;PMS_P2;Temp;Humidity;BMP_temperature;BMP_pressure;BME280_temperature;BME280_humidity;BME280_pressure;Samples;Min_cycle;Max_cycle;Signal;HPM_P1;HPM_P2
2023/02/15 00:01:06;;;;;;;39.83;17.58;;;;;;;;;;5014200;28;20178;-62
2023/02/15 00:03:32;;;;;;;45.67;18.08;;;;;;;;;;5014031;28;20523;-62
2023/02/15 00:05:58;;;;;;;44.88;19.45;;;;;;;;;;5014030;28;20245;-62
2023/02/15 00:08:24;;;;;;;43.97;18.83;;;;;;;;;;5014609;28;20189;-58
2023/02/15 00:10:50;;;;;;;40.88;18.80;;;;;;;;;;5014026;28;20636;-63
2023/02/15 00:13:16;;;;;;;43.88;17.77;;;;;;;;;;5014927;28;20170;-61
2023/02/15 00:15:42;;;;;;;38.95;17.33;;;;;;;;;;5014065;28;20174;-62
2023/02/15 00:18:08;;;;;;;46.97;19.75;;;;;;;;;;5014642;28;20269;-62
2023/02/15 00:20:34;;;;;;;41.67;18.00;;;;;;;;;;5013919;28;20171;-62
2023/02/15 00:23:00;;;;;;;41.10;17.20;;;;;;;;;;5014077;28;20185;-62
2023/02/15 00:25:26;;;;;;;48.47;18.55;;;;;;;;;;5013304;28;20170;-62
2023/02/15 00:27:52;;;;;;;39.55;18.42;;;;;;;;;;5013095;28;20174;-62
2023/02/15 00:30:17;;;;;;;46.75;18.55;;;;;;;;;;5013735;28;20198;-62
2023/02/15 00:32:43;;;;;;;43.25;18.38;;;;;;;;;;5013824;28;20231;-63
2023/02/15 00:35:10;;;;;;;43.13;18.45;;;;;;;;;;5013844;28;20178;-61
2023/02/15 00:37:36;;;;;;;43.22;18.65;;;;;;;;;;5013936;28;20174;-61
2023/02/15 00:40:02;;;;;;;44.22;19.10;;;;;;;;;;5013640;28;20182;-63
2023/02/15 00:42:28;;;;;;;37.75;17.90;;;;;;;;;;5013728;28;20270;-62
2023/02/15 00:44:54;;;;;;;43.97;18.23;;;;;;;;;;5013608;28;20193;-61
2023/02/15 00:47:20;;;;;;;41.30;18.10;;;;;;;;;;5013440;28;20178;-60
2023/02/15 00:49:46;;;;;;;48.15;18.65;;;;;;;;;;5013471;28;20206;-60
2023/02/15 00:52:12;;;;;;;45.70;19.05;;;;;;;;;;5013491;28;20170;-61
2023/02/15 00:54:38;;;;;;;45.20;19.15;;;;;;;;;;5014360;28;20512;-62
2023/02/15 00:57:04;;;;;;;44.55;18.48;;;;;;;;;;5013452;28;20227;-63
2023/02/15 00:59:30;;;;;;;40.63;18.27;;;;;;;;;;5013476;28;20253;-59
2023/02/15 01:01:56;;;;;;;42.30;18.38;;;;;;;;;;5013084;28;20522;-60
2023/02/15 01:04:22;;;;;;;43.10;17.98;;;;;;;;;;5013178;28;20191;-62
2023/02/15 01:06:48;;;;;;;45.22;19.20;;;;;;;;;;5013709;28;20166;-62
2023/02/15 01:09:14;;;;;;;45.17;19.38;;;;;;;;;;5013265;28;20166;-62
2023/02/15 01:11:40;;;;;;;44.67;19.48;;;;;;;;;;5012918;28;20194;-62
2023/02/15 01:14:06;;;;;;;39.88;18.02;;;;;;;;;;5013269;28;20167;-61
2023/02/15 01:16:32;;;;;;;46.38;19.17;;;;;;;;;;5013258;28;20165;-59
2023/02/15 01:18:58;;;;;;;41.58;18.88;;;;;;;;;;5013095;28;20174;-61
2023/02/15 01:21:25;;;;;;;41.78;17.08;;;;;;;;;;5013093;28;20174;-62
2023/02/15 01:23:51;;;;;;;45.58;18.88;;;;;;;;;;5013262;28;20533;-60
2023/02/15 01:26:17;;;;;;;44.70;19.20;;;;;;;;;;5013169;28;20170;-62
2023/02/15 01:28:43;;;;;;;44.05;18.60;;;;;;;;;;5013233;28;20189;-62
2023/02/15 01:31:10;;;;;;;41.72;18.60;;;;;;;;;;5012589;28;20621;-61
2023/02/15 01:33:36;;;;;;;40.55;18.10;;;;;;;;;;5012993;28;20162;-63
2023/02/15 01:36:03;;;;;;;45.92;18.08;;;;;;;;;;5012813;28;20315;-62
2023/02/15 01:38:29;;;;;;;48.33;20.13;;;;;;;;;;5012543;28;20166;-62
2023/02/15 01:41:19;;;;;;;50.22;19.98;;;;;;;;;;5012666;28;20182;-61
2023/02/15 01:43:43;;;;;;;47.35;19.02;;;;;;;;;;5012515;28;20177;-62
2023/02/15 01:46:09;;;;;;;45.05;19.20;;;;;;;;;;5012773;28;20174;-62
2023/02/15 01:48:37;;;;;;;45.20;18.77;;;;;;;;;;5012800;28;20170;-60
2023/02/15 01:51:03;;;;;;;43.75;18.95;;;;;;;;;;5012448;28;20628;-62
2023/02/15 01:53:32;;;;;;;44.25;19.63;;;;;;;;;;5012756;28;20201;-61
2023/02/15 01:56:00;;;;;;;46.70;18.60;;;;;;;;;;5013250;28;20173;-62
2023/02/15 01:58:28;;;;;;;55.30;20.20;;;;;;;;;;5025120;28;20173;-62
2023/02/15 02:00:55;;;;;;;41.83;19.27;;;;;;;;;;5030542;28;20166;-62
2023/02/15 02:03:27;;;;;;;43.78;19.42;;;;;;;;;;5016699;28;20255;-60
2023/02/15 02:05:53;;;;;;;42.38;18.83;;;;;;;;;;5013250;28;20155;-61
2023/02/15 02:08:19;;;;;;;41.85;19.10;;;;;;;;;;5012941;28;20171;-61
2023/02/15 02:10:45;;;;;;;42.20;19.23;;;;;;;;;;5012700;28;20190;-61
2023/02/15 02:13:11;;;;;;;44.03;19.23;;;;;;;;;;5013009;28;20181;-61
2023/02/15 02:15:47;;;;;;;45.88;18.95;;;;;;;;;;5012375;28;20269;-62
2023/02/15 02:18:12;;;;;;;46.95;18.65;;;;;;;;;;5012445;28;20169;-61
2023/02/15 02:20:53;;;;;;;52.38;20.48;;;;;;;;;;5012574;28;20171;-62
2023/02/15 02:23:25;;;;;;;47.05;19.65;;;;;;;;;;5012406;28;20509;-61
2023/02/15 02:26:11;;;;;;;44.97;19.15;;;;;;;;;;5012411;28;20503;-62
2023/02/15 02:28:55;;;;;;;45.17;19.40;;;;;;;;;;5012265;28;20235;-61
2023/02/15 02:31:24;;;;;;;43.70;18.88;;;;;;;;;;5013142;28;20493;-62
2023/02/15 02:33:50;;;;;;;42.95;18.02;;;;;;;;;;5019810;28;20484;-62
2023/02/15 02:36:20;;;;;;;52.67;20.90;;;;;;;;;;5023771;28;20162;-62
2023/02/15 02:38:55;;;;;;;40.80;19.40;;;;;;;;;;5014678;28;20485;-61
2023/02/15 02:41:29;;;;;;;44.85;19.58;;;;;;;;;;5016120;28;20166;-61
2023/02/15 02:44:10;;;;;;;49.10;20.33;;;;;;;;;;5013919;28;20253;-61
2023/02/15 02:46:55;;;;;;;45.45;19.63;;;;;;;;;;5014184;28;20217;-60
2023/02/15 02:49:31;;;;;;;46.60;20.25;;;;;;;;;;5012079;28;20185;-62
2023/02/15 02:52:04;;;;;;;46.50;20.42;;;;;;;;;;5015333;28;20185;-61
2023/02/15 02:54:31;;;;;;;51.08;20.30;;;;;;;;;;5015309;28;20600;-61
2023/02/15 02:56:59;;;;;;;47.88;19.75;;;;;;;;;;5015288;28;20274;-62
2023/02/15 02:59:34;;;;;;;45.13;18.98;;;;;;;;;;5015290;28;20205;-62
2023/02/15 03:02:03;;;;;;;45.75;19.55;;;;;;;;;;5014869;28;20189;-62
2023/02/15 03:04:31;;;;;;;44.13;18.90;;;;;;;;;;5014948;28;20166;-61
2023/02/15 03:07:05;;;;;;;42.90;18.40;;;;;;;;;;5015129;28;20171;-61
2023/02/15 03:09:43;;;;;;;44.22;20.35;;;;;;;;;;5015116;28;20227;-62
2023/02/15 03:12:14;;;;;;;42.90;19.00;;;;;;;;;;5015083;28;20186;-60
2023/02/15 03:14:45;;;;;;;48.13;19.58;;;;;;;;;;5015035;28;20170;-61
2023/02/15 03:17:12;;;;;;;45.92;20.10;;;;;;;;;;5014700;28;20505;-62
2023/02/15 03:19:39;;;;;;;46.25;19.08;;;;;;;;;;5014611;28;20560;-62
2023/02/15 03:22:14;;;;;;;44.53;20.08;;;;;;;;;;5014806;28;20198;-61
2023/02/15 03:24:44;;;;;;;48.72;20.55;;;;;;;;;;5014966;28;20190;-61
2023/02/15 03:27:17;;;;;;;46.47;19.15;;;;;;;;;;5014517;28;20166;-61
2023/02/15 03:29:44;;;;;;;46.45;19.77;;;;;;;;;;5014835;28;20582;-62
2023/02/15 03:32:11;;;;;;;44.65;19.17;;;;;;;;;;5014413;28;20166;-63
2023/02/15 03:34:37;;;;;;;47.53;20.33;;;;;;;;;;5015335;28;20185;-62
2023/02/15 03:37:06;;;;;;;46.42;20.35;;;;;;;;;;5014519;28;20249;-59
2023/02/15 03:39:35;;;;;;;44.03;18.85;;;;;;;;;;5014502;28;20657;-60
2023/02/15 03:42:07;;;;;;;52.80;21.15;;;;;;;;;;5014737;28;20193;-58
2023/02/15 03:44:37;;;;;;;49.95;21.88;;;;;;;;;;5014685;28;20158;-62
2023/02/15 03:47:29;;;;;;;50.83;21.50;;;;;;;;;;5014496;28;20179;-62
2023/02/15 03:51:33;;;;;;;51.65;21.63;;;;;;;;;;5017424;28;20660;-62
2023/02/15 03:52:53;;;;;;;46.90;20.80;;;;;;;;;;5014228;28;20188;-62
2023/02/15 03:55:19;;;;;;;51.40;19.90;;;;;;;;;;5014397;28;20177;-61
2023/02/15 04:03:15;;;;;;;54.65;21.55;;;;;;;;;;5014528;28;20174;-62
2023/02/15 04:05:42;;;;;;;48.13;21.90;;;;;;;;;;5014200;28;20167;-62
2023/02/15 04:08:08;;;;;;;48.40;20.05;;;;;;;;;;5013960;28;20177;-62
2023/02/15 04:10:52;;;;;;;52.60;20.92;;;;;;;;;;5014172;28;20190;-62
2023/02/15 04:13:22;;;;;;;51.83;20.83;;;;;;;;;;5013493;28;20161;-61
2023/02/15 04:16:03;;;;;;;51.78;21.77;;;;;;;;;;5013846;28;20612;-62
2023/02/15 04:27:08;;;;;;;50.83;20.60;;;;;;;;;;5013933;28;20211;-61
2023/02/15 04:29:34;;;;;;;53.58;22.17;;;;;;;;;;5013805;28;20601;-61
2023/02/15 04:32:01;;;;;;;52.00;20.00;;;;;;;;;;5013961;28;20192;-62
2023/02/15 04:34:27;;;;;;;50.60;19.63;;;;;;;;;;5014025;28;20174;-61
2023/02/15 04:36:53;;;;;;;53.50;20.92;;;;;;;;;;5013440;28;20193;-61
2023/02/15 04:39:19;;;;;;;47.25;18.98;;;;;;;;;;5014172;28;20197;-62
2023/02/15 04:41:47;;;;;;;50.60;20.63;;;;;;;;;;5013410;28;20174;-61
2023/02/15 04:44:13;;;;;;;53.17;19.52;;;;;;;;;;5012832;28;20318;-62
2023/02/15 04:46:39;;;;;;;46.28;20.00;;;;;;;;;;5013738;28;20637;-61
2023/02/15 04:49:05;;;;;;;56.58;21.45;;;;;;;;;;5013244;28;20238;-61
2023/02/15 04:51:32;;;;;;;50.53;19.80;;;;;;;;;;5018271;28;20198;-62
2023/02/15 04:53:58;;;;;;;54.03;21.98;;;;;;;;;;5034214;28;20186;-61
2023/02/15 04:56:24;;;;;;;56.70;20.27;;;;;;;;;;5034497;28;20181;-62
2023/02/15 04:58:50;;;;;;;54.78;21.23;;;;;;;;;;5014387;28;20177;-62
2023/02/15 05:01:16;;;;;;;58.75;20.55;;;;;;;;;;5013893;28;20190;-61
2023/02/15 05:03:42;;;;;;;54.60;20.27;;;;;;;;;;5013842;28;20178;-60
2023/02/15 05:06:08;;;;;;;52.30;20.70;;;;;;;;;;5013323;28;20171;-60
2023/02/15 05:08:34;;;;;;;56.17;20.83;;;;;;;;;;5013423;28;20174;-61
2023/02/15 05:11:00;;;;;;;53.78;20.85;;;;;;;;;;5013382;28;20236;-62
2023/02/15 05:13:26;;;;;;;48.72;18.98;;;;;;;;;;5013686;28;20604;-62
2023/02/15 05:15:52;;;;;;;50.90;20.13;;;;;;;;;;5013360;28;20646;-60
2023/02/15 05:18:19;;;;;;;48.30;19.63;;;;;;;;;;5013212;28;20162;-60
2023/02/15 05:20:45;;;;;;;53.17;21.13;;;;;;;;;;5012917;28;20166;-62
2023/02/15 05:23:11;;;;;;;55.90;21.50;;;;;;;;;;5012951;28;20242;-60
2023/02/15 05:28:22;;;;;;;45.50;19.27;;;;;;;;;;5012968;28;20169;-62
2023/02/15 05:30:49;;;;;;;45.08;19.35;;;;;;;;;;5012866;28;20205;-59
2023/02/15 05:33:15;;;;;;;48.92;20.02;;;;;;;;;;5013001;28;20218;-60
2023/02/15 05:35:42;;;;;;;48.40;19.75;;;;;;;;;;5013104;28;20166;-62
2023/02/15 05:38:08;;;;;;;54.20;21.05;;;;;;;;;;5013082;28;20173;-62
2023/02/15 05:40:34;;;;;;;54.20;21.27;;;;;;;;;;5012774;28;20170;-62
2023/02/15 05:43:00;;;;;;;49.78;20.10;;;;;;;;;;5012917;28;20189;-62
2023/02/15 05:45:26;;;;;;;51.83;20.70;;;;;;;;;;5013281;28;20499;-62
2023/02/15 05:47:52;;;;;;;50.17;20.75;;;;;;;;;;5012427;28;20174;-59
2023/02/15 05:50:18;;;;;;;53.15;20.80;;;;;;;;;;5012284;28;20197;-61
2023/02/15 05:52:44;;;;;;;47.45;19.80;;;;;;;;;;5012571;28;20194;-57
2023/02/15 05:55:10;;;;;;;49.92;19.33;;;;;;;;;;5012507;28;20185;-59
2023/02/15 05:57:36;;;;;;;53.90;21.85;;;;;;;;;;5012587;28;20174;-59
2023/02/15 06:00:04;;;;;;;49.85;22.10;;;;;;;;;;5012436;28;20188;-58
2023/02/15 06:02:30;;;;;;;49.28;21.50;;;;;;;;;;5012299;28;20225;-59
2023/02/15 06:04:56;;;;;;;51.92;21.23;;;;;;;;;;5013221;28;20162;-61
2023/02/15 06:07:22;;;;;;;48.42;20.67;;;;;;;;;;5014054;28;20173;-60
2023/02/15 06:09:47;;;;;;;51.10;20.38;;;;;;;;;;5014858;28;20167;-61
2023/02/15 06:12:13;;;;;;;48.78;20.75;;;;;;;;;;5015119;28;20166;-61
2023/02/15 06:14:39;;;;;;;46.13;19.90;;;;;;;;;;5014742;28;20166;-61
2023/02/15 06:17:06;;;;;;;49.65;20.73;;;;;;;;;;5015194;28;20171;-61
2023/02/15 06:19:32;;;;;;;52.60;21.17;;;;;;;;;;5012886;28;20223;-60
2023/02/15 06:21:58;;;;;;;59.58;20.65;;;;;;;;;;5012424;28;20171;-59
2023/02/15 06:24:24;;;;;;;49.45;20.42;;;;;;;;;;5012836;28;20197;-61
2023/02/15 06:26:50;;;;;;;43.20;19.33;;;;;;;;;;5015803;28;20485;-62
2023/02/15 06:29:16;;;;;;;46.15;19.70;;;;;;;;;;5015981;28;20174;-59
2023/02/15 06:31:42;;;;;;;43.88;18.30;;;;;;;;;;5015604;28;20194;-61
2023/02/15 06:34:08;;;;;;;45.33;18.50;;;;;;;;;;5015684;28;20257;-62
2023/02/15 06:36:34;;;;;;;49.85;19.25;;;;;;;;;;5015675;28;20193;-62
2023/02/15 06:39:01;;;;;;;50.10;19.15;;;;;;;;;;5015412;28;20177;-62
2023/02/15 06:41:27;;;;;;;49.35;19.73;;;;;;;;;;5015544;28;20489;-62
2023/02/15 06:43:53;;;;;;;54.25;20.20;;;;;;;;;;5015261;28;20173;-63
2023/02/15 06:46:19;;;;;;;49.97;19.23;;;;;;;;;;5015207;28;20177;-62
2023/02/15 06:48:45;;;;;;;49.17;19.58;;;;;;;;;;5015450;28;20205;-62
2023/02/15 06:51:11;;;;;;;43.88;18.75;;;;;;;;;;5015443;28;20289;-62
2023/02/15 06:53:37;;;;;;;43.70;19.67;;;;;;;;;;5015396;28;20174;-62
2023/02/15 06:56:06;;;;;;;46.92;19.67;;;;;;;;;;5015016;28;20231;-62
2023/02/15 06:58:32;;;;;;;49.33;20.65;;;;;;;;;;5015384;28;20166;-61
2023/02/15 07:00:58;;;;;;;44.95;18.77;;;;;;;;;;5015336;28;20171;-62
2023/02/15 07:03:24;;;;;;;48.42;20.15;;;;;;;;;;5014946;28;20201;-62
2023/02/15 07:05:55;;;;;;;47.05;20.08;;;;;;;;;;5015329;28;20174;-62
2023/02/15 07:08:21;;;;;;;47.17;19.25;;;;;;;;;;5014856;28;20576;-62
2023/02/15 07:10:47;;;;;;;49.25;19.75;;;;;;;;;;5015210;28;20205;-60
2023/02/15 07:13:13;;;;;;;45.03;19.50;;;;;;;;;;5015224;28;20303;-60
2023/02/15 07:15:39;;;;;;;45.47;20.00;;;;;;;;;;5014936;28;20627;-61
2023/02/15 07:18:05;;;;;;;48.30;20.73;;;;;;;;;;5014771;28;20605;-61
2023/02/15 07:20:33;;;;;;;41.63;19.17;;;;;;;;;;5015054;28;20555;-62
2023/02/15 07:22:59;;;;;;;48.65;19.05;;;;;;;;;;5015095;28;20179;-62
2023/02/15 07:25:51;;;;;;;45.00;19.73;;;;;;;;;;5014610;28;20181;-63
2023/02/15 07:28:17;;;;;;;48.33;20.60;;;;;;;;;;5014886;28;20177;-62
2023/02/15 07:30:43;;;;;;;49.85;19.02;;;;;;;;;;5014353;28;20541;-62
2023/02/15 07:33:24;;;;;;;46.63;19.83;;;;;;;;;;5014478;28;20274;-61
2023/02/15 07:35:51;;;;;;;45.90;19.48;;;;;;;;;;5016929;28;20182;-62
2023/02/15 07:38:17;;;;;;;42.50;19.65;;;;;;;;;;5021777;28;20182;-61
2023/02/15 07:40:43;;;;;;;50.80;19.92;;;;;;;;;;5015525;28;20239;-59
2023/02/15 07:43:09;;;;;;;45.53;20.67;;;;;;;;;;5015940;28;20171;-61
2023/02/15 07:45:35;;;;;;;42.80;19.30;;;;;;;;;;5014896;28;20707;-62
2023/02/15 07:48:01;;;;;;;44.38;20.45;;;;;;;;;;5014738;28;20175;-62
2023/02/15 07:50:28;;;;;;;43.92;19.60;;;;;;;;;;5014690;28;20202;-62
2023/02/15 07:52:53;;;;;;;40.90;19.55;;;;;;;;;;5014410;28;20181;-62
2023/02/15 07:55:20;;;;;;;49.22;21.52;;;;;;;;;;5014587;28;20509;-60
2023/02/15 07:57:46;;;;;;;43.90;20.13;;;;;;;;;;5014156;28;20170;-62
2023/02/15 08:00:13;;;;;;;41.92;19.95;;;;;;;;;;5014401;28;20197;-61
2023/02/15 08:02:40;;;;;;;49.22;19.55;;;;;;;;;;5013947;28;20221;-62
2023/02/15 08:05:06;;;;;;;43.30;19.90;;;;;;;;;;5014174;28;20269;-61
2023/02/15 08:07:32;;;;;;;44.50;19.50;;;;;;;;;;5014419;28;20173;-61
2023/02/15 08:09:59;;;;;;;45.60;20.30;;;;;;;;;;5013734;28;20171;-59
2023/02/15 08:12:27;;;;;;;40.70;19.55;;;;;;;;;;5014349;28;20170;-61
2023/02/15 08:14:53;;;;;;;40.85;19.92;;;;;;;;;;5013986;28;20181;-60
2023/02/15 08:17:19;;;;;;;39.88;20.52;;;;;;;;;;5014210;28;20179;-61
2023/02/15 08:19:46;;;;;;;39.15;19.42;;;;;;;;;;5013883;28;20247;-60
2023/02/15 08:22:13;;;;;;;44.00;19.38;;;;;;;;;;5014017;28;20174;-60
2023/02/15 08:24:39;;;;;;;45.10;20.08;;;;;;;;;;5013802;28;20166;-62
2023/02/15 08:27:07;;;;;;;43.15;20.35;;;;;;;;;;5013776;28;20173;-60
2023/02/15 08:29:33;;;;;;;43.40;19.92;;;;;;;;;;5013705;28;20178;-61
2023/02/15 08:32:04;;;;;;;42.58;19.60;;;;;;;;;;5013763;28;20579;-62
2023/02/15 08:34:34;;;;;;;41.38;19.80;;;;;;;;;;5013529;28;20154;-60
2023/02/15 08:37:00;;;;;;;40.10;19.13;;;;;;;;;;5013900;28;20504;-57
2023/02/15 08:39:26;;;;;;;39.05;18.00;;;;;;;;;;5013637;28;20178;-57
2023/02/15 08:41:52;;;;;;;40.80;19.05;;;;;;;;;;5013861;28;20174;-59
2023/02/15 08:44:19;;;;;;;42.00;20.60;;;;;;;;;;5013303;28;20510;-60
2023/02/15 08:46:46;;;;;;;42.90;20.23;;;;;;;;;;5012760;28;20609;-62
2023/02/15 08:49:13;;;;;;;41.10;19.88;;;;;;;;;;5013042;28;20178;-62
2023/02/15 08:51:39;;;;;;;39.53;19.13;;;;;;;;;;5013572;28;20223;-62
2023/02/15 08:54:08;;;;;;;42.97;18.80;;;;;;;;;;5013466;28;20166;-60
2023/02/15 08:56:35;;;;;;;42.42;19.70;;;;;;;;;;5013921;28;20543;-62
2023/02/15 08:59:01;;;;;;;39.42;19.23;;;;;;;;;;5013190;28;20250;-62
2023/02/15 09:01:29;;;;;;;39.97;19.55;;;;;;;;;;5013165;28;20261;-60
2023/02/15 09:04:04;;;;;;;35.30;17.77;;;;;;;;;;5012955;28;20565;-61
2023/02/15 09:06:30;;;;;;;35.67;18.33;;;;;;;;;;5013403;28;20158;-61
2023/02/15 09:08:56;;;;;;;33.15;17.88;;;;;;;;;;5013154;28;20226;-62
2023/02/15 09:11:24;;;;;;;36.45;18.05;;;;;;;;;;5013007;28;20280;-62
2023/02/15 09:13:53;;;;;;;32.92;17.08;;;;;;;;;;5013143;28;20492;-62
2023/02/15 09:16:19;;;;;;;36.60;18.05;;;;;;;;;;5012938;28;20235;-61
2023/02/15 09:18:46;;;;;;;35.67;18.38;;;;;;;;;;5013354;28;20170;-61
2023/02/15 09:21:16;;;;;;;31.25;17.45;;;;;;;;;;5013119;28;20266;-62
2023/02/15 09:23:43;;;;;;;34.90;18.33;;;;;;;;;;5012997;28;20235;-61
2023/02/15 09:26:10;;;;;;;35.08;17.90;;;;;;;;;;5012904;28;20265;-59
2023/02/15 09:28:36;;;;;;;31.55;17.13;;;;;;;;;;5013040;28;20166;-62
2023/02/15 09:31:10;;;;;;;36.63;19.17;;;;;;;;;;5013096;28;20270;-61
2023/02/15 09:33:37;;;;;;;31.75;16.73;;;;;;;;;;5013929;28;20208;-61
2023/02/15 09:36:04;;;;;;;30.85;16.83;;;;;;;;;;5014777;28;20242;-61
2023/02/15 09:38:30;;;;;;;34.78;17.90;;;;;;;;;;5013993;28;20498;-60
2023/02/15 09:41:10;;;;;;;31.63;17.40;;;;;;;;;;5013916;28;20171;-61
2023/02/15 09:43:39;;;;;;;35.17;18.38;;;;;;;;;;5013675;28;20218;-61
2023/02/15 09:46:12;;;;;;;30.35;17.13;;;;;;;;;;5013463;28;20585;-60
2023/02/15 09:48:42;;;;;;;34.40;17.65;;;;;;;;;;5013110;28;20162;-60
2023/02/15 09:51:15;;;;;;;32.72;18.23;;;;;;;;;;5012754;28;20519;-60
2023/02/15 09:53:54;;;;;;;32.20;17.85;;;;;;;;;;5012783;28;20182;-58
2023/02/15 09:56:37;;;;;;;32.47;17.48;;;;;;;;;;5012721;28;20235;-60
2023/02/15 09:59:21;;;;;;;31.88;17.05;;;;;;;;;;5012468;28;20172;-61
2023/02/15 10:02:05;;;;;;;33.67;18.27;;;;;;;;;;5012380;28;20226;-62
2023/02/15 10:04:49;;;;;;;32.42;17.42;;;;;;;;;;5012627;28;20249;-61
2023/02/15 10:07:21;;;;;;;33.20;18.25;;;;;;;;;;5012567;28;20174;-62
2023/02/15 10:10:04;;;;;;;33.38;18.00;;;;;;;;;;5012251;28;20167;-61
2023/02/15 10:12:40;;;;;;;32.67;17.90;;;;;;;;;;5012675;28;20188;-62
2023/02/15 10:15:30;;;;;;;32.97;18.60;;;;;;;;;;5012323;28;20185;-62
2023/02/15 10:17:59;;;;;;;32.30;17.33;;;;;;;;;;5012587;28;20159;-62
2023/02/15 10:20:30;;;;;;;35.15;18.13;;;;;;;;;;5012012;28;20219;-63
2023/02/15 10:23:12;;;;;;;31.50;17.80;;;;;;;;;;5012498;28;20241;-63
2023/02/15 10:26:13;;;;;;;33.33;18.48;;;;;;;;;;5026607;28;20178;-62
2023/02/15 10:28:42;;;;;;;33.72;17.42;;;;;;;;;;5107478;28;20296;-61
2023/02/15 10:31:28;;;;;;;34.15;17.63;;;;;;;;;;5093630;28;20637;-62
2023/02/15 10:34:04;;;;;;;33.50;18.00;;;;;;;;;;5093568;28;20171;-62
2023/02/15 10:36:39;;;;;;;33.13;17.42;;;;;;;;;;5093137;28;20237;-61
2023/02/15 10:39:04;;;;;;;33.63;17.90;;;;;;;;;;5093307;28;20269;-63
2023/02/15 10:41:32;;;;;;;35.53;18.25;;;;;;;;;;5093045;28;20171;-62
2023/02/15 10:44:15;;;;;;;38.08;19.90;;;;;;;;;;5093333;28;20210;-62
2023/02/15 10:46:56;;;;;;;39.42;19.55;;;;;;;;;;5092966;28;20256;-61
2023/02/15 10:49:34;;;;;;;37.00;19.30;;;;;;;;;;5093083;28;20195;-61
2023/02/15 10:52:00;;;;;;;36.60;19.52;;;;;;;;;;5093039;28;20274;-60
2023/02/15 10:54:26;;;;;;;35.67;19.70;;;;;;;;;;5093180;28;20541;-60
2023/02/15 10:57:01;;;;;;;35.63;18.80;;;;;;;;;;5092968;28;20218;-63
2023/02/15 10:59:38;;;;;;;39.80;20.40;;;;;;;;;;5092804;28;20178;-62
2023/02/15 11:02:14;;;;;;;40.30;19.63;;;;;;;;;;5069180;28;20202;-63
2023/02/15 11:04:59;;;;;;;38.55;20.08;;;;;;;;;;5011566;28;20688;-62
2023/02/15 11:07:27;;;;;;;36.50;19.80;;;;;;;;;;5011537;28;20186;-59
2023/02/15 11:10:20;;;;;;;37.17;19.05;;;;;;;;;;5011518;28;20650;-61
2023/02/15 11:12:47;;;;;;;38.58;19.90;;;;;;;;;;5014910;28;20240;-61
2023/02/15 11:15:29;;;;;;;41.20;20.65;;;;;;;;;;5014854;28;20501;-63
2023/02/15 11:18:02;;;;;;;39.53;20.33;;;;;;;;;;5014864;28;20492;-63
2023/02/15 11:20:33;;;;;;;39.42;20.48;;;;;;;;;;5014975;28;20178;-62
2023/02/15 11:23:01;;;;;;;45.22;21.13;;;;;;;;;;5014591;28;20234;-62
2023/02/15 11:25:31;;;;;;;42.55;22.05;;;;;;;;;;5014841;28;20181;-62
2023/02/15 11:27:57;;;;;;;40.25;20.83;;;;;;;;;;5014660;28;20175;-60
2023/02/15 11:30:25;;;;;;;40.17;19.45;;;;;;;;;;5014669;28;20636;-61
2023/02/15 11:32:54;;;;;;;41.70;22.17;;;;;;;;;;5014502;28;20233;-61
2023/02/15 11:35:23;;;;;;;39.22;20.35;;;;;;;;;;5014664;28;20209;-63
2023/02/15 11:37:55;;;;;;;45.22;22.25;;;;;;;;;;5014199;28;20186;-62
2023/02/15 11:40:24;;;;;;;42.97;22.30;;;;;;;;;;5014886;28;20589;-63
2023/02/15 11:42:52;;;;;;;42.03;20.85;;;;;;;;;;5014551;28;20171;-62
2023/02/15 11:45:25;;;;;;;43.50;21.20;;;;;;;;;;5014619;28;20175;-63
2023/02/15 11:47:52;;;;;;;42.10;21.05;;;;;;;;;;5014491;28;20173;-62
2023/02/15 11:50:22;;;;;;;41.70;21.80;;;;;;;;;;5014050;28;20653;-62
2023/02/15 11:52:48;;;;;;;41.72;21.25;;;;;;;;;;5014404;28;20251;-62
2023/02/15 11:55:18;;;;;;;43.30;21.98;;;;;;;;;;5014352;28;20578;-63
2023/02/15 11:57:47;;;;;;;40.88;22.02;;;;;;;;;;5013845;28;20664;-62
2023/02/15 12:00:23;;;;;;;43.38;22.08;;;;;;;;;;5014377;28;20227;-64
2023/02/15 12:02:52;;;;;;;43.40;21.88;;;;;;;;;;5014197;28;20220;-63
2023/02/15 12:05:45;;;;;;;46.08;22.90;;;;;;;;;;5014006;28;20186;-62
2023/02/15 12:08:21;;;;;;;44.88;22.90;;;;;;;;;;5013982;28;20541;-62
2023/02/15 12:10:53;;;;;;;48.28;23.77;;;;;;;;;;5014307;28;20193;-61
2023/02/15 12:13:20;;;;;;;47.58;23.08;;;;;;;;;;5013970;28;20174;-63
2023/02/15 12:15:48;;;;;;;49.17;24.05;;;;;;;;;;5014183;28;20185;-61
2023/02/15 12:18:35;;;;;;;51.67;24.25;;;;;;;;;;5014028;28;20215;-62
2023/02/15 12:21:04;;;;;;;46.30;24.15;;;;;;;;;;5014145;28;20171;-63
2023/02/15 12:23:31;;;;;;;43.85;22.35;;;;;;;;;;5013664;28;20263;-63
2023/02/15 12:25:57;;;;;;;46.65;22.50;;;;;;;;;;5013958;28;20178;-61
2023/02/15 12:28:23;;;;;;;41.97;21.10;;;;;;;;;;5013625;28;20608;-59
2023/02/15 12:30:50;;;;;;;44.80;22.48;;;;;;;;;;5013852;28;20198;-61
2023/02/15 12:33:21;;;;;;;41.90;21.45;;;;;;;;;;5013602;28;20597;-61
2023/02/15 12:35:49;;;;;;;38.28;21.17;;;;;;;;;;5013800;28;20163;-62
2023/02/15 12:38:15;;;;;;;45.95;22.45;;;;;;;;;;5013445;28;20173;-61
2023/02/15 12:40:41;;;;;;;42.08;22.20;;;;;;;;;;5013660;28;20167;-61
2023/02/15 12:43:26;;;;;;;44.92;22.67;;;;;;;;;;5013603;28;20177;-62
2023/02/15 12:45:52;;;;;;;39.33;20.58;;;;;;;;;;5013621;28;20259;-62
2023/02/15 12:48:19;;;;;;;39.72;21.38;;;;;;;;;;5013530;28;20198;-62
2023/02/15 12:50:46;;;;;;;47.60;23.52;;;;;;;;;;5013344;28;20288;-61
2023/02/15 12:53:19;;;;;;;42.20;20.92;;;;;;;;;;5013434;28;20166;-59
2023/02/15 12:56:06;;;;;;;40.38;21.38;;;;;;;;;;5014456;28;20170;-61
2023/02/15 12:58:36;;;;;;;43.08;20.98;;;;;;;;;;5013228;28;20258;-62
2023/02/15 13:01:03;;;;;;;46.10;21.05;;;;;;;;;;5014323;28;20166;-62
2023/02/15 13:03:29;;;;;;;43.00;21.38;;;;;;;;;;5013563;28;20193;-61
2023/02/15 13:05:56;;;;;;;46.00;22.90;;;;;;;;;;5014906;28;20225;-61
2023/02/15 13:08:27;;;;;;;45.47;22.63;;;;;;;;;;5013885;28;20185;-59
2023/02/15 13:10:57;;;;;;;44.53;21.35;;;;;;;;;;5013647;28;20251;-60
2023/02/15 13:13:28;;;;;;;46.10;21.88;;;;;;;;;;5020132;28;20174;-61
2023/02/15 13:15:57;;;;;;;45.63;21.55;;;;;;;;;;5023649;28;20171;-62
2023/02/15 13:18:31;;;;;;;39.22;19.73;;;;;;;;;;5016138;28;20185;-59
2023/02/15 13:20:58;;;;;;;41.17;20.17;;;;;;;;;;5014013;28;20165;-61
2023/02/15 13:23:27;;;;;;;40.60;19.80;;;;;;;;;;5013311;28;20181;-62
2023/02/15 13:25:54;;;;;;;41.83;20.25;;;;;;;;;;5013221;28;20171;-62
2023/02/15 13:28:23;;;;;;;36.88;19.48;;;;;;;;;;5012971;28;20170;-62
2023/02/15 13:30:49;;;;;;;39.25;20.02;;;;;;;;;;5013129;28;20197;-62
2023/02/15 13:33:35;;;;;;;40.05;20.25;;;;;;;;;;5012540;28;20170;-62
2023/02/15 13:36:07;;;;;;;44.22;21.20;;;;;;;;;;5013075;28;20177;-59
2023/02/15 13:38:46;;;;;;;37.90;20.05;;;;;;;;;;5013004;28;20231;-60
2023/02/15 13:41:31;;;;;;;41.75;21.30;;;;;;;;;;5012966;28;20165;-59
2023/02/15 13:44:07;;;;;;;43.95;21.98;;;;;;;;;;5012874;28;20175;-62
2023/02/15 13:46:33;;;;;;;44.90;23.23;;;;;;;;;;5012863;28;20184;-59
2023/02/15 13:49:18;;;;;;;43.55;21.70;;;;;;;;;;5012830;28;20504;-59
2023/02/15 13:52:00;;;;;;;41.28;20.80;;;;;;;;;;5012364;28;20210;-62
2023/02/15 13:54:44;;;;;;;46.35;22.00;;;;;;;;;;5012735;28;20150;-62
2023/02/15 13:57:13;;;;;;;39.63;21.08;;;;;;;;;;5012346;28;20170;-64
2023/02/15 13:59:46;;;;;;;44.45;22.85;;;;;;;;;;5012265;28;20178;-62
2023/02/15 14:02:12;;;;;;;45.08;21.73;;;;;;;;;;5012491;28;20188;-61
2023/02/15 14:04:45;;;;;;;37.10;18.83;;;;;;;;;;5012658;28;20170;-63
2023/02/15 14:07:18;;;;;;;36.28;18.73;;;;;;;;;;5012324;28;20256;-62
2023/02/15 14:10:02;;;;;;;38.85;20.55;;;;;;;;;;5012194;28;20174;-63
2023/02/15 14:12:49;;;;;;;38.58;18.48;;;;;;;;;;5012102;28;20310;-61
2023/02/15 14:15:14;;;;;;;35.95;18.90;;;;;;;;;;5052578;28;20179;-59
2023/02/15 14:17:47;;;;;;;35.35;18.63;;;;;;;;;;5012693;28;20684;-61
2023/02/15 14:20:16;;;;;;;31.80;17.75;;;;;;;;;;5012489;28;20159;-62
2023/02/15 14:22:44;;;;;;;37.30;19.48;;;;;;;;;;5011987;28;20530;-60
2023/02/15 14:25:20;;;;;;;32.65;17.60;;;;;;;;;;5012224;28;20174;-61
2023/02/15 14:28:03;;;;;;;34.42;18.33;;;;;;;;;;5012399;28;20273;-60
2023/02/15 14:30:31;;;;;;;34.47;17.48;;;;;;;;;;5012251;28;20190;-63
2023/02/15 14:33:02;;;;;;;33.17;18.23;;;;;;;;;;5013405;28;20182;-60
2023/02/15 14:35:30;;;;;;;33.08;18.08;;;;;;;;;;5012310;28;20570;-59
2023/02/15 14:38:05;;;;;;;29.58;16.50;;;;;;;;;;5012254;28;20158;-59
2023/02/15 14:43:21;;;;;;;34.67;18.35;;;;;;;;;;5012290;28;20259;-59
2023/02/15 14:45:55;;;;;;;38.10;19.17;;;;;;;;;;5012849;28;20166;-61
2023/02/15 14:48:26;;;;;;;34.08;18.17;;;;;;;;;;5015702;28;20174;-62
2023/02/15 14:50:52;;;;;;;34.95;17.75;;;;;;;;;;5015448;28;20193;-62